Terminal Aerodrome Forecast
Issued by NWS Jackson, KY

Home | Current Version | Previous Version | Text Only | Print | Product List | Glossary On
Versions: 1 2 3 4 5 6 7 8 9 10 11 12 13 14
198
FTUS43 KJKL 242334
TAFJKL
TAF
KJKL 242334Z 2500/2524 VRB03KT P6SM SKC
     FM250900 VRB03KT P6SM OVC090
     FM251800 22006KT P6SM BKN050=

USA.gov is the U.S. government's official web portal to all federal, state and local government web resources and services.